createdAt,value
2022-10-04T00:00:51.314Z,10.37
2022-10-04T00:03:25.487Z,10.45
2022-10-04T00:05:57.416Z,10.52
2022-10-04T00:08:31.104Z,10.55
2022-10-04T00:11:05.192Z,10.51
2022-10-04T00:13:33.895Z,10.52
2022-10-04T00:16:02.328Z,10.62
2022-10-04T00:18:33.021Z,10.60
2022-10-04T00:21:05.062Z,10.56
2022-10-04T00:23:45.686Z,10.60
2022-10-04T00:26:50.177Z,10.62
2022-10-04T00:29:34.878Z,10.65
2022-10-04T00:32:29.956Z,10.65
2022-10-04T00:34:58.869Z,10.60
2022-10-04T00:37:29.273Z,10.60
2022-10-04T00:40:09.537Z,10.61
2022-10-04T00:42:45.214Z,10.67
2022-10-04T00:45:18.216Z,10.55
2022-10-04T00:48:00.098Z,10.60
2022-10-04T00:50:31.511Z,10.56
2022-10-04T00:53:02.101Z,10.60
2022-10-04T00:55:34.662Z,10.70
2022-10-04T00:58:04.190Z,10.57
2022-10-04T01:00:33.482Z,10.63
2022-10-04T01:03:04.044Z,10.75
2022-10-04T01:05:35.006Z,10.58
2022-10-04T01:08:08.982Z,10.66
2022-10-04T01:10:41.890Z,10.75
2022-10-04T01:13:14.133Z,10.77
2022-10-04T01:15:46.252Z,10.74
2022-10-04T01:18:16.717Z,10.71
2022-10-04T01:20:54.522Z,10.70
2022-10-04T01:23:38.628Z,10.74
2022-10-04T01:26:08.743Z,10.66
2022-10-04T01:28:38.578Z,10.71
2022-10-04T01:31:07.307Z,10.75
2022-10-04T01:33:36.974Z,10.76
2022-10-04T01:36:05.255Z,10.69
2022-10-04T01:38:33.159Z,10.68
2022-10-04T01:41:04.937Z,10.70
2022-10-04T01:43:34.977Z,10.74
2022-10-04T01:46:07.925Z,10.69
2022-10-04T01:48:38.390Z,10.71
2022-10-04T01:51:08.922Z,10.66
2022-10-04T01:53:41.809Z,10.70
2022-10-04T01:56:15.505Z,10.64
2022-10-04T01:58:46.202Z,10.69
2022-10-04T02:01:17.734Z,10.72
2022-10-04T02:03:49.846Z,10.68
2022-10-04T02:06:17.937Z,10.66
2022-10-04T02:08:49.483Z,10.71
2022-10-04T02:11:21.475Z,10.73
2022-10-04T02:13:51.466Z,10.81
2022-10-04T02:16:20.080Z,10.82
2022-10-04T02:18:48.358Z,10.76
2022-10-04T02:21:16.873Z,10.74
2022-10-04T02:23:45.281Z,10.69
2022-10-04T02:26:14.012Z,10.68
2022-10-04T02:28:43.402Z,10.64
2022-10-04T02:31:28.754Z,10.70
2022-10-04T02:33:58.481Z,10.70
2022-10-04T02:36:28.572Z,10.73
2022-10-04T02:39:01.750Z,10.70
2022-10-04T02:41:32.078Z,10.72
2022-10-04T02:44:04.684Z,10.64
2022-10-04T02:46:35.164Z,10.67
2022-10-04T02:49:06.881Z,10.65
2022-10-04T02:51:39.067Z,10.62
2022-10-04T02:54:08.706Z,10.57
2022-10-04T02:56:37.856Z,10.56
2022-10-04T02:59:08.305Z,10.53
2022-10-04T03:01:47.061Z,10.60
2022-10-04T03:04:15.970Z,10.58
2022-10-04T03:06:46.069Z,10.58
2022-10-04T03:09:15.081Z,10.59
2022-10-04T03:11:43.967Z,10.62
2022-10-04T03:14:16.734Z,10.63
2022-10-04T03:16:46.539Z,10.64
2022-10-04T03:19:17.079Z,10.61
2022-10-04T03:21:47.813Z,10.65
2022-10-04T03:24:23.521Z,10.65
2022-10-04T03:26:54.492Z,10.63
2022-10-04T03:29:25.683Z,10.63
2022-10-04T03:31:58.393Z,10.63
2022-10-04T03:34:27.706Z,10.58
2022-10-04T03:36:59.177Z,10.60
2022-10-04T03:39:34.451Z,10.52
2022-10-04T03:42:04.825Z,10.53
2022-10-04T03:44:34.287Z,10.60
2022-10-04T03:47:02.480Z,10.63
2022-10-04T03:49:33.749Z,10.55
2022-10-04T03:52:02.628Z,10.61
2022-10-04T03:54:31.074Z,10.55
2022-10-04T03:57:00.373Z,10.61
2022-10-04T03:59:28.688Z,10.64
2022-10-04T04:02:05.126Z,10.60
2022-10-04T04:04:42.138Z,10.56
2022-10-04T04:07:14.269Z,10.52
2022-10-04T04:09:45.855Z,10.56
2022-10-04T04:12:19.836Z,10.54
2022-10-04T04:14:50.792Z,10.55
2022-10-04T04:17:31.920Z,10.55
2022-10-04T04:20:06.315Z,10.57
2022-10-04T04:22:36.470Z,10.65
2022-10-04T04:25:08.375Z,10.66
2022-10-04T04:27:40.075Z,10.73
2022-10-04T04:30:09.971Z,10.66
2022-10-04T04:32:41.113Z,10.66
2022-10-04T04:35:22.988Z,10.74
2022-10-04T04:38:08.084Z,10.67
2022-10-04T04:40:37.855Z,10.65
2022-10-04T04:43:06.004Z,10.64
2022-10-04T04:45:35.875Z,10.58
2022-10-04T04:48:07.210Z,10.59
2022-10-04T04:50:37.413Z,10.61
2022-10-04T04:53:09.009Z,10.67
2022-10-04T04:56:02.325Z,10.63
2022-10-04T04:58:33.266Z,10.59
2022-10-04T05:01:03.100Z,10.66
2022-10-04T05:03:34.122Z,10.63
2022-10-04T05:06:04.870Z,10.62
2022-10-04T05:08:40.182Z,10.65
2022-10-04T05:11:13.337Z,10.62
2022-10-04T05:13:43.698Z,10.60
2022-10-04T05:16:14.688Z,10.57
2022-10-04T05:18:44.249Z,10.58
2022-10-04T05:21:16.578Z,10.56
2022-10-04T05:23:44.643Z,10.56
2022-10-04T05:26:13.200Z,10.53
2022-10-04T05:28:41.471Z,10.51
2022-10-04T05:31:24.230Z,10.50
2022-10-04T05:33:57.481Z,10.48
2022-10-04T05:36:48.529Z,10.45
2022-10-04T05:39:24.092Z,10.41
2022-10-04T05:41:58.001Z,10.41
2022-10-04T05:44:28.721Z,10.39
2022-10-04T05:46:57.801Z,10.44
2022-10-04T05:49:30.743Z,10.40
2022-10-04T05:52:01.940Z,10.40
2022-10-04T05:54:32.905Z,10.47
2022-10-04T05:57:33.385Z,10.44
2022-10-04T06:00:09.541Z,10.53
2022-10-04T06:03:15.474Z,10.57
2022-10-04T06:05:50.949Z,10.57
2022-10-04T06:08:29.689Z,10.61
2022-10-04T06:11:06.305Z,10.61
2022-10-04T06:13:59.489Z,10.61
2022-10-04T06:16:35.381Z,10.66
2022-10-04T06:19:18.521Z,10.75
2022-10-04T06:22:02.418Z,10.77
2022-10-04T06:24:32.105Z,10.77
2022-10-04T06:27:05.846Z,10.73
2022-10-04T06:29:36.981Z,10.82
2022-10-04T06:32:34.335Z,10.85
2022-10-04T06:35:32.495Z,10.86
2022-10-04T06:38:28.506Z,10.90
2022-10-04T06:41:13.337Z,10.97
2022-10-04T06:43:56.969Z,11.05
2022-10-04T06:46:30.039Z,11.13
2022-10-04T06:49:18.549Z,11.18
2022-10-04T06:52:07.346Z,11.22
2022-10-04T06:54:47.814Z,11.21
2022-10-04T06:57:41.281Z,11.22
2022-10-04T07:00:11.302Z,11.22
2022-10-04T07:02:43.236Z,11.20
2022-10-04T07:05:20.419Z,11.18
2022-10-04T07:07:50.477Z,11.17
2022-10-04T07:10:33.414Z,11.23
2022-10-04T07:13:11.792Z,11.30
2022-10-04T07:15:47.518Z,11.36
2022-10-04T07:18:19.691Z,11.39
2022-10-04T07:20:49.073Z,11.42
2022-10-04T07:23:28.211Z,11.46
2022-10-04T07:26:01.495Z,11.56
2022-10-04T07:28:49.710Z,11.62
2022-10-04T07:31:26.237Z,11.75
2022-10-04T07:33:58.347Z,11.79
2022-10-04T07:36:29.219Z,11.86
2022-10-04T07:39:00.321Z,11.96
2022-10-04T07:41:32.633Z,12.03
2022-10-04T07:44:04.407Z,12.16
2022-10-04T07:46:52.878Z,12.21
2022-10-04T07:49:22.561Z,12.40
2022-10-04T07:52:04.653Z,12.52
2022-10-04T07:54:38.589Z,12.57
2022-10-04T07:57:13.313Z,12.76
2022-10-04T07:59:46.378Z,12.82
2022-10-04T08:02:26.648Z,12.89
2022-10-04T08:05:04.133Z,12.91
2022-10-04T08:07:43.282Z,12.90
2022-10-04T08:10:14.798Z,12.91
2022-10-04T08:12:51.398Z,13.14
2022-10-04T08:15:34.324Z,13.32
2022-10-04T08:18:12.674Z,13.33
2022-10-04T08:20:48.199Z,13.19
2022-10-04T08:23:35.497Z,13.26
2022-10-04T08:26:13.750Z,13.27
2022-10-04T08:29:06.254Z,13.40
2022-10-04T08:31:54.321Z,13.45
2022-10-04T08:34:34.538Z,13.63
2022-10-04T08:37:10.317Z,13.63
2022-10-04T08:39:49.539Z,13.71
2022-10-04T08:42:33.690Z,13.63
2022-10-04T08:45:54.210Z,13.74
2022-10-04T08:49:01.231Z,13.67
2022-10-04T08:52:19.759Z,13.77
2022-10-04T08:55:25.118Z,13.82
2022-10-04T08:58:15.260Z,13.89
2022-10-04T09:00:53.525Z,13.93
2022-10-04T09:03:37.450Z,14.00
2022-10-04T09:06:33.182Z,14.10
2022-10-04T09:09:44.868Z,14.18
2022-10-04T09:12:33.726Z,14.27
2022-10-04T09:15:26.224Z,14.32
2022-10-04T09:18:03.410Z,14.35
2022-10-04T09:20:44.877Z,14.40
2022-10-04T09:23:37.529Z,14.49
2022-10-04T09:26:21.284Z,14.64
2022-10-04T09:29:10.268Z,14.69
2022-10-04T09:31:48.237Z,14.74
2022-10-04T09:34:36.391Z,14.67
2022-10-04T09:37:26.341Z,14.78
2022-10-04T09:40:27.650Z,14.94
2022-10-04T09:43:19.102Z,14.95
2022-10-04T09:46:10.322Z,14.97
2022-10-04T09:48:40.679Z,15.08
2022-10-04T09:51:26.198Z,15.12
2022-10-04T09:54:10.838Z,15.08
2022-10-04T09:56:59.269Z,15.28
2022-10-04T10:00:02.877Z,15.32
2022-10-04T10:03:11.018Z,15.37
2022-10-04T10:06:21.778Z,15.44
2022-10-04T10:09:04.130Z,15.42
2022-10-04T10:11:56.779Z,15.32
2022-10-04T10:15:04.370Z,15.28
2022-10-04T10:17:40.277Z,15.30
2022-10-04T10:20:29.986Z,15.34
2022-10-04T10:23:39.570Z,16.01
2022-10-04T10:26:51.718Z,16.07
2022-10-04T10:30:08.206Z,16.10
2022-10-04T10:33:01.574Z,16.41
2022-10-04T10:35:39.850Z,16.35
2022-10-04T10:38:26.187Z,16.48
2022-10-04T10:41:19.583Z,16.57
2022-10-04T10:44:07.887Z,16.76
2022-10-04T10:46:47.525Z,16.75
2022-10-04T10:49:44.332Z,16.55
2022-10-04T10:53:00.149Z,16.36
2022-10-04T10:55:39.981Z,16.26
2022-10-04T10:58:34.221Z,16.25
2022-10-04T11:01:15.763Z,16.42
2022-10-04T11:04:05.822Z,16.74
2022-10-04T11:06:58.923Z,17.12
2022-10-04T11:09:32.893Z,17.24
2022-10-04T11:12:39.927Z,17.35
2022-10-04T11:15:34.975Z,17.26
2022-10-04T11:18:19.262Z,17.01
2022-10-04T11:21:11.755Z,17.23
2022-10-04T11:24:08.579Z,17.35
2022-10-04T11:26:57.050Z,17.40
2022-10-04T11:29:39.978Z,17.35
2022-10-04T11:32:47.600Z,16.91
2022-10-04T11:35:36.949Z,17.09
2022-10-04T11:38:14.802Z,17.46
2022-10-04T11:41:01.393Z,17.67
2022-10-04T11:43:55.616Z,17.24
2022-10-04T11:46:33.789Z,17.19
2022-10-04T11:49:14.264Z,16.89
2022-10-04T11:52:29.746Z,17.32
2022-10-04T11:55:23.437Z,17.72
2022-10-04T11:57:56.188Z,17.85
2022-10-04T12:00:25.174Z,17.59
2022-10-04T12:03:31.473Z,17.72
2022-10-04T12:06:27.004Z,18.05
2022-10-04T12:09:05.994Z,17.88
2022-10-04T12:12:13.958Z,17.81
2022-10-04T12:14:52.149Z,18.09
2022-10-04T12:17:39.986Z,17.74
2022-10-04T12:20:56.889Z,17.83
2022-10-04T12:23:49.700Z,18.01
2022-10-04T12:26:57.205Z,18.19
2022-10-04T12:29:43.843Z,18.01
2022-10-04T12:32:18.724Z,18.05
2022-10-04T12:34:54.933Z,18.01
2022-10-04T12:37:28.562Z,17.91
2022-10-04T12:40:08.677Z,18.18
2022-10-04T12:42:41.573Z,18.09
2022-10-04T12:45:27.346Z,18.11
2022-10-04T12:48:12.665Z,18.73
2022-10-04T12:50:48.906Z,18.40
2022-10-04T12:53:24.230Z,18.54
2022-10-04T12:56:05.929Z,18.32
2022-10-04T12:58:44.470Z,18.50
2022-10-04T13:01:18.916Z,18.38
2022-10-04T13:04:06.918Z,18.45
2022-10-04T13:06:43.826Z,18.64
2022-10-04T13:09:17.865Z,19.06
2022-10-04T13:12:05.341Z,19.08
2022-10-04T13:14:57.115Z,19.09
2022-10-04T13:17:36.473Z,18.79
2022-10-04T13:20:26.047Z,19.19
2022-10-04T13:22:58.154Z,18.95
2022-10-04T13:25:53.251Z,19.17
2022-10-04T13:28:26.574Z,18.86
2022-10-04T13:31:01.103Z,18.83
2022-10-04T13:33:34.940Z,19.14
2022-10-04T13:36:09.233Z,18.94
2022-10-04T13:39:20.464Z,19.06
2022-10-04T13:42:01.535Z,19.25
2022-10-04T13:44:48.196Z,19.27
2022-10-04T13:47:30.482Z,18.77
2022-10-04T13:50:13.882Z,19.09
2022-10-04T13:53:06.395Z,19.01
2022-10-04T13:55:57.203Z,19.23
2022-10-04T13:58:36.662Z,19.40
2022-10-04T14:01:27.196Z,19.71
2022-10-04T14:04:07.147Z,19.87
2022-10-04T14:07:07.994Z,18.76
2022-10-04T14:09:52.081Z,19.42
2022-10-04T14:12:38.640Z,19.61
2022-10-04T14:15:54.832Z,19.18
2022-10-04T14:18:56.080Z,19.43
2022-10-04T14:21:48.532Z,19.31
2022-10-04T14:24:48.668Z,19.59
2022-10-04T14:27:56.065Z,19.98
2022-10-04T14:30:35.229Z,19.57
2022-10-04T14:33:17.329Z,19.80
2022-10-04T14:35:53.038Z,20.56
2022-10-04T14:39:02.461Z,20.06
2022-10-04T14:42:09.783Z,19.74
2022-10-04T14:44:51.313Z,20.06
2022-10-04T14:47:36.203Z,19.27
2022-10-04T14:50:19.058Z,19.47
2022-10-04T14:52:56.969Z,19.55
2022-10-04T14:55:49.169Z,19.70
2022-10-04T14:58:23.126Z,19.31
2022-10-04T15:01:06.532Z,19.18
2022-10-04T15:03:42.160Z,18.97
2022-10-04T15:06:22.191Z,19.31
2022-10-04T15:09:04.558Z,19.06
2022-10-04T15:11:43.287Z,19.23
2022-10-04T15:14:27.853Z,18.78
2022-10-04T15:16:58.204Z,18.88
2022-10-04T15:19:31.533Z,19.14
2022-10-04T15:22:08.989Z,19.38
2022-10-04T15:24:49.001Z,19.29
2022-10-04T15:27:49.632Z,19.70
2022-10-04T15:30:30.972Z,18.74
2022-10-04T15:33:15.163Z,18.65
2022-10-04T15:36:05.311Z,18.72
2022-10-04T15:38:37.073Z,18.16
2022-10-04T15:41:08.347Z,18.37
2022-10-04T15:43:43.773Z,18.32
2022-10-04T15:46:31.633Z,17.79
2022-10-04T15:49:17.935Z,17.52
2022-10-04T15:52:03.183Z,17.33
2022-10-04T15:54:44.558Z,17.44
2022-10-04T15:57:24.924Z,17.31
2022-10-04T15:59:55.597Z,17.07
2022-10-04T16:02:54.406Z,16.84
2022-10-04T16:05:28.477Z,16.75
2022-10-04T16:08:28.333Z,16.78
2022-10-04T16:11:14.362Z,16.83
2022-10-04T16:14:38.946Z,16.50
2022-10-04T16:17:33.693Z,16.41
2022-10-04T16:20:39.490Z,16.32
2022-10-04T16:23:29.807Z,16.41
2022-10-04T16:25:58.753Z,16.30
2022-10-04T16:28:51.615Z,16.45
2022-10-04T16:31:25.036Z,16.27
2022-10-04T16:33:57.814Z,16.03
2022-10-04T16:36:31.989Z,16.05
2022-10-04T16:39:19.881Z,16.03
2022-10-04T16:41:56.581Z,15.86
2022-10-04T16:44:32.518Z,15.79
2022-10-04T16:47:03.143Z,15.66
2022-10-04T16:49:40.216Z,15.66
2022-10-04T16:52:22.289Z,15.68
2022-10-04T16:55:33.803Z,15.50
2022-10-04T16:58:38.682Z,15.37
2022-10-04T17:01:52.899Z,15.39
2022-10-04T17:04:52.245Z,15.35
2022-10-04T17:07:25.336Z,15.18
2022-10-04T17:10:02.825Z,15.23
2022-10-04T17:12:36.937Z,15.09
2022-10-04T17:15:21.121Z,15.11
2022-10-04T17:17:53.542Z,15.04
2022-10-04T17:20:29.727Z,15.00
2022-10-04T17:23:18.629Z,15.09
2022-10-04T17:25:55.374Z,14.91
2022-10-04T17:28:30.467Z,14.81
2022-10-04T17:31:04.115Z,14.77
2022-10-04T17:33:42.730Z,14.73
2022-10-04T17:36:28.181Z,14.63
2022-10-04T17:39:03.849Z,14.52
2022-10-04T17:41:43.150Z,14.57
2022-10-04T17:44:26.255Z,14.50
2022-10-04T17:46:59.402Z,14.56
2022-10-04T17:49:54.092Z,14.53
2022-10-04T17:52:43.056Z,14.44
2022-10-04T17:55:19.402Z,14.53
2022-10-04T17:57:52.259Z,14.50
2022-10-04T18:00:21.572Z,14.51
2022-10-04T18:03:06.773Z,14.46
2022-10-04T18:05:44.307Z,14.46
2022-10-04T18:08:17.846Z,14.46
2022-10-04T18:10:50.588Z,14.59
2022-10-04T18:13:27.502Z,14.35
2022-10-04T18:16:00.647Z,14.32
2022-10-04T18:18:31.188Z,14.24
2022-10-04T18:21:05.334Z,14.27
2022-10-04T18:23:36.291Z,14.28
2022-10-04T18:26:09.316Z,14.24
2022-10-04T18:28:38.882Z,14.16
2022-10-04T18:31:21.793Z,14.08
2022-10-04T18:33:51.489Z,14.21
2022-10-04T18:36:23.594Z,14.30
2022-10-04T18:39:03.354Z,14.28
2022-10-04T18:41:45.949Z,14.29
2022-10-04T18:44:17.422Z,14.25
2022-10-04T18:46:51.327Z,14.26
2022-10-04T18:49:24.692Z,14.28
2022-10-04T18:52:02.139Z,14.24
2022-10-04T18:54:35.632Z,14.19
2022-10-04T18:57:11.049Z,14.18
2022-10-04T19:00:06.154Z,14.18
2022-10-04T19:02:38.614Z,14.08
2022-10-04T19:05:14.183Z,14.08
2022-10-04T19:07:44.678Z,13.98
2022-10-04T19:10:23.222Z,13.89
2022-10-04T19:13:03.592Z,13.94
2022-10-04T19:15:43.930Z,13.97
2022-10-04T19:18:23.175Z,13.93
2022-10-04T19:20:56.329Z,13.94
2022-10-04T19:23:29.402Z,13.85
2022-10-04T19:26:30.669Z,13.80
2022-10-04T19:28:52.082Z,13.85
2022-10-04T19:31:26.008Z,13.75
2022-10-04T19:33:56.869Z,13.78
2022-10-04T19:36:46.374Z,13.67
2022-10-04T19:39:34.286Z,13.70
2022-10-04T19:42:04.536Z,13.69
2022-10-04T19:44:38.619Z,13.66
2022-10-04T19:47:14.470Z,13.66
2022-10-04T19:49:48.770Z,13.64
2022-10-04T19:52:23.812Z,13.63
2022-10-04T19:54:54.681Z,13.63
2022-10-04T19:57:33.293Z,13.55
2022-10-04T20:00:02.329Z,13.48
2022-10-04T20:02:31.665Z,13.46
2022-10-04T20:04:59.841Z,13.49
2022-10-04T20:07:28.642Z,13.49
2022-10-04T20:09:59.446Z,13.53
2022-10-04T20:12:36.470Z,13.51
2022-10-04T20:15:27.398Z,13.42
2022-10-04T20:17:58.136Z,13.43
2022-10-04T20:21:03.567Z,13.46
2022-10-04T20:23:59.030Z,13.41
2022-10-04T20:27:06.739Z,13.44
2022-10-04T20:30:06.739Z,13.42
2022-10-04T20:33:02.081Z,13.45
2022-10-04T20:36:09.101Z,13.46
2022-10-04T20:38:51.049Z,13.49
2022-10-04T20:42:04.465Z,13.51
2022-10-04T20:44:50.777Z,13.54
2022-10-04T20:47:23.968Z,13.57
2022-10-04T20:49:56.310Z,13.61
2022-10-04T20:52:26.290Z,13.68
2022-10-04T20:54:55.233Z,13.66
2022-10-04T20:57:23.769Z,13.67
2022-10-04T20:59:54.630Z,13.76
2022-10-04T21:02:24.368Z,13.75
2022-10-04T21:04:54.073Z,13.74
2022-10-04T21:07:23.761Z,13.69
2022-10-04T21:09:53.212Z,13.69
2022-10-04T21:12:29.954Z,13.62
2022-10-04T21:15:07.100Z,13.63
2022-10-04T21:17:37.314Z,13.55
2022-10-04T21:20:10.893Z,13.51
2022-10-04T21:22:39.728Z,13.51
2022-10-04T21:25:31.048Z,13.47
2022-10-04T21:28:38.563Z,13.46
2022-10-04T21:31:06.691Z,13.40
2022-10-04T21:33:35.826Z,13.33
2022-10-04T21:36:05.939Z,13.34
2022-10-04T21:38:33.955Z,13.29
2022-10-04T21:41:02.006Z,13.33
2022-10-04T21:43:30.172Z,13.35
2022-10-04T21:45:58.295Z,13.37
2022-10-04T21:48:27.516Z,13.37
2022-10-04T21:50:56.112Z,13.40
2022-10-04T21:53:25.551Z,13.38
2022-10-04T21:55:53.469Z,13.37
2022-10-04T21:58:21.383Z,13.36
2022-10-04T22:00:49.472Z,13.34
2022-10-04T22:03:17.478Z,13.34
2022-10-04T22:05:45.359Z,13.38
2022-10-04T22:08:13.250Z,13.33
2022-10-04T22:10:43.489Z,13.31
2022-10-04T22:13:11.400Z,13.32
2022-10-04T22:15:39.336Z,13.32
2022-10-04T22:18:07.564Z,13.29
2022-10-04T22:20:35.541Z,13.30
2022-10-04T22:23:03.941Z,13.29
2022-10-04T22:25:31.865Z,13.40
2022-10-04T22:28:01.449Z,13.37
2022-10-04T22:30:31.239Z,13.35
2022-10-04T22:33:00.459Z,13.32
2022-10-04T22:35:31.590Z,13.38
2022-10-04T22:38:00.946Z,13.40
2022-10-04T22:40:29.965Z,13.39
2022-10-04T22:43:01.001Z,13.36
2022-10-04T22:45:33.543Z,13.35
2022-10-04T22:48:02.573Z,13.38
2022-10-04T22:50:33.038Z,13.34
2022-10-04T22:53:05.183Z,13.37
2022-10-04T22:55:33.196Z,13.34
2022-10-04T22:58:02.707Z,13.36
2022-10-04T23:00:30.604Z,13.41
2022-10-04T23:02:58.695Z,13.45
2022-10-04T23:05:26.639Z,13.45
2022-10-04T23:07:54.536Z,13.49
2022-10-04T23:10:22.520Z,13.46
2022-10-04T23:12:50.806Z,13.46
2022-10-04T23:15:21.318Z,13.42
2022-10-04T23:17:55.023Z,13.48
2022-10-04T23:20:23.806Z,13.44
2022-10-04T23:22:52.921Z,13.48
2022-10-04T23:25:22.410Z,13.48
2022-10-04T23:27:50.473Z,13.51
2022-10-04T23:30:21.417Z,13.54
2022-10-04T23:32:51.229Z,13.51
2022-10-04T23:35:21.149Z,13.54
2022-10-04T23:37:49.930Z,13.52
2022-10-04T23:40:20.026Z,13.55
2022-10-04T23:42:48.546Z,13.52
2022-10-04T23:45:20.568Z,13.47
2022-10-04T23:47:51.060Z,13.46
2022-10-04T23:50:23.010Z,13.43
2022-10-04T23:52:52.216Z,13.47
2022-10-04T23:55:23.279Z,13.46
2022-10-04T23:57:51.834Z,13.42
